createdAt,value
2022-09-02T00:00:53.745Z,1.58
2022-09-02T00:01:56.529Z,1.43
2022-09-02T00:02:59.603Z,2.34
2022-09-02T00:04:02.358Z,1.62
2022-09-02T00:05:04.987Z,1.53
2022-09-02T00:06:08.000Z,1.67
2022-09-02T00:07:10.531Z,1.61
2022-09-02T00:08:13.132Z,1.57
2022-09-02T00:09:15.704Z,1.49
2022-09-02T00:10:18.677Z,1.84
2022-09-02T00:11:21.245Z,1.55
2022-09-02T00:12:24.285Z,1.39
2022-09-02T00:13:26.893Z,1.43
2022-09-02T00:14:29.566Z,1.61
2022-09-02T00:15:32.266Z,1.59
2022-09-02T00:16:35.718Z,1.87
2022-09-02T00:17:38.596Z,1.49
2022-09-02T00:18:44.964Z,1.59
2022-09-02T00:19:47.524Z,1.46
2022-09-02T00:20:50.286Z,1.86
2022-09-02T00:21:53.222Z,1.58
2022-09-02T00:22:55.934Z,1.93
2022-09-02T00:23:58.498Z,1.73
2022-09-02T00:25:01.170Z,1.59
2022-09-02T00:26:04.207Z,1.49
2022-09-02T00:27:06.813Z,1.50
2022-09-02T00:28:09.349Z,1.71
2022-09-02T00:29:11.942Z,1.45
2022-09-02T00:30:16.155Z,1.58
2022-09-02T00:31:19.121Z,1.49
2022-09-02T00:32:21.761Z,1.44
2022-09-02T00:33:24.322Z,1.73
2022-09-02T00:34:26.936Z,1.50
2022-09-02T00:35:29.608Z,2.23
2022-09-02T00:36:32.785Z,1.44
2022-09-02T00:37:35.350Z,1.35
2022-09-02T00:38:37.800Z,1.89
2022-09-02T00:39:40.690Z,1.37
2022-09-02T00:40:43.566Z,1.69
2022-09-02T00:41:47.099Z,2.88
2022-09-02T00:42:49.717Z,1.37
2022-09-02T00:43:52.284Z,1.45
2022-09-02T00:44:54.952Z,1.32
2022-09-02T00:45:57.625Z,1.41
2022-09-02T00:47:00.705Z,1.66
2022-09-02T00:48:03.269Z,1.27
2022-09-02T00:49:05.766Z,1.49
2022-09-02T00:50:08.915Z,1.82
2022-09-02T00:51:11.599Z,1.65
2022-09-02T00:52:14.212Z,1.41
2022-09-02T00:53:16.821Z,1.79
2022-09-02T00:54:19.389Z,1.75
2022-09-02T00:55:22.057Z,1.32
2022-09-02T00:56:25.653Z,2.08
2022-09-02T00:57:28.217Z,1.49
2022-09-02T00:58:30.669Z,1.93
2022-09-02T00:59:33.271Z,1.81
2022-09-02T01:00:36.401Z,1.78
2022-09-02T01:01:39.755Z,1.69
2022-09-02T01:02:42.798Z,1.49
2022-09-02T01:03:45.502Z,2.17
2022-09-02T01:04:48.090Z,1.95
2022-09-02T01:05:50.701Z,1.86
2022-09-02T01:06:53.572Z,2.21
2022-09-02T01:07:56.345Z,1.93
2022-09-02T01:08:58.937Z,2.20
2022-09-02T01:10:01.585Z,2.18
2022-09-02T01:11:04.252Z,1.91
2022-09-02T01:12:08.782Z,2.17
2022-09-02T01:13:11.438Z,1.79
2022-09-02T01:14:14.106Z,2.05
2022-09-02T01:15:16.626Z,2.24
2022-09-02T01:16:20.995Z,2.33
2022-09-02T01:17:23.952Z,1.77
2022-09-02T01:18:26.621Z,1.94
2022-09-02T01:19:29.188Z,2.61
2022-09-02T01:20:32.258Z,2.11
2022-09-02T01:21:34.895Z,1.78
2022-09-02T01:22:37.494Z,1.91
2022-09-02T01:23:40.300Z,2.07
2022-09-02T01:24:42.946Z,2.55
2022-09-02T01:25:45.932Z,2.16
2022-09-02T01:26:48.898Z,2.42
2022-09-02T01:27:51.556Z,2.30
2022-09-02T01:28:54.133Z,2.29
2022-09-02T01:29:56.756Z,2.11
2022-09-02T01:30:59.466Z,2.43
2022-09-02T01:32:02.034Z,2.53
2022-09-02T01:33:04.710Z,2.05
2022-09-02T01:34:07.373Z,2.21
2022-09-02T01:35:10.046Z,2.65
2022-09-02T01:36:13.251Z,2.77
2022-09-02T01:37:15.794Z,2.25
2022-09-02T01:38:18.352Z,2.49
2022-09-02T01:39:20.928Z,2.73
2022-09-02T01:40:24.022Z,3.01
2022-09-02T01:41:26.886Z,2.73
2022-09-02T01:42:29.847Z,2.44
2022-09-02T01:43:32.521Z,2.60
2022-09-02T01:44:35.202Z,3.39
2022-09-02T01:45:37.867Z,2.57
2022-09-02T01:46:40.911Z,2.47
2022-09-02T01:47:43.739Z,2.79
2022-09-02T01:48:46.336Z,2.24
2022-09-02T01:49:48.962Z,2.12
2022-09-02T01:50:51.823Z,1.98
2022-09-02T01:51:54.451Z,2.73
2022-09-02T01:52:59.001Z,2.25
2022-09-02T01:54:01.675Z,2.43
2022-09-02T01:55:04.242Z,2.17
2022-09-02T01:56:07.217Z,2.59
2022-09-02T01:57:09.666Z,1.94
2022-09-02T01:58:12.256Z,1.93
2022-09-02T01:59:14.975Z,1.75
2022-09-02T02:00:18.721Z,1.98
2022-09-02T02:01:21.626Z,2.27
2022-09-02T02:02:24.652Z,2.08
2022-09-02T02:03:27.528Z,1.75
2022-09-02T02:04:31.438Z,2.28
2022-09-02T02:05:34.000Z,2.24
2022-09-02T02:06:37.090Z,1.55
2022-09-02T02:07:39.751Z,2.06
2022-09-02T02:08:42.322Z,1.50
2022-09-02T02:09:44.992Z,2.27
2022-09-02T02:10:48.078Z,1.96
2022-09-02T02:11:50.734Z,1.73
2022-09-02T02:12:53.313Z,2.04
2022-09-02T02:13:56.018Z,1.65
2022-09-02T02:14:58.601Z,2.05
2022-09-02T02:16:01.898Z,1.97
2022-09-02T02:17:04.659Z,2.19
2022-09-02T02:18:07.305Z,1.75
2022-09-02T02:19:09.985Z,1.66
2022-09-02T02:20:13.380Z,2.07
2022-09-02T02:21:15.949Z,1.73
2022-09-02T02:22:19.271Z,1.72
2022-09-02T02:23:22.356Z,2.00
2022-09-02T02:24:25.226Z,1.82
2022-09-02T02:25:27.787Z,1.90
2022-09-02T02:26:32.161Z,1.67
2022-09-02T02:27:34.707Z,2.06
2022-09-02T02:28:37.335Z,1.65
2022-09-02T02:29:39.838Z,1.77
2022-09-02T02:30:42.565Z,1.92
2022-09-02T02:31:45.301Z,1.75
2022-09-02T02:32:48.110Z,1.79
2022-09-02T02:33:50.679Z,1.85
2022-09-02T02:34:53.251Z,2.41
2022-09-02T02:35:55.920Z,2.47
2022-09-02T02:36:58.815Z,1.95
2022-09-02T02:38:03.987Z,2.09
2022-09-02T02:39:06.178Z,1.78
2022-09-02T02:40:09.332Z,1.90
2022-09-02T02:41:12.235Z,2.02
2022-09-02T02:42:15.214Z,1.78
2022-09-02T02:43:18.232Z,2.46
2022-09-02T02:44:20.861Z,1.95
2022-09-02T02:45:23.527Z,1.66
2022-09-02T02:46:26.584Z,1.68
2022-09-02T02:47:29.483Z,1.70
2022-09-02T02:48:32.047Z,2.44
2022-09-02T02:49:34.611Z,1.61
2022-09-02T02:50:37.482Z,1.57
2022-09-02T02:51:40.111Z,3.23
2022-09-02T02:52:42.722Z,2.31
2022-09-02T02:53:45.394Z,2.82
2022-09-02T02:54:47.924Z,2.57
2022-09-02T02:55:51.395Z,2.85
2022-09-02T02:56:54.731Z,2.55
2022-09-02T02:57:57.401Z,2.39
2022-09-02T02:59:00.405Z,2.67
2022-09-02T03:00:03.243Z,2.07
2022-09-02T03:01:05.873Z,4.58
2022-09-02T03:02:08.720Z,3.89
2022-09-02T03:03:12.049Z,3.06
2022-09-02T03:04:14.912Z,3.07
2022-09-02T03:05:17.588Z,3.35
2022-09-02T03:06:26.692Z,2.16
2022-09-02T03:07:26.681Z,3.78
2022-09-02T03:08:29.306Z,4.64
2022-09-02T03:09:31.815Z,4.71
2022-09-02T03:10:34.548Z,5.48
2022-09-02T03:11:37.277Z,6.23
2022-09-02T03:12:39.788Z,4.99
2022-09-02T03:13:42.457Z,4.05
2022-09-02T03:14:45.026Z,3.17
2022-09-02T03:15:47.818Z,2.58
2022-09-02T03:16:50.978Z,1.76
2022-09-02T03:17:53.746Z,2.07
2022-09-02T03:18:56.683Z,1.83
2022-09-02T03:19:59.283Z,1.66
2022-09-02T03:21:02.273Z,5.08
2022-09-02T03:22:04.938Z,3.43
2022-09-02T03:23:07.611Z,3.02
2022-09-02T03:24:10.379Z,3.01
2022-09-02T03:25:13.038Z,3.83
2022-09-02T03:26:18.895Z,2.22
2022-09-02T03:27:21.960Z,2.20
2022-09-02T03:28:24.529Z,2.18
2022-09-02T03:29:27.202Z,2.03
2022-09-02T03:30:30.382Z,1.82
2022-09-02T03:31:32.989Z,2.28
2022-09-02T03:32:35.627Z,1.83
2022-09-02T03:33:38.194Z,8.29
2022-09-02T03:34:40.809Z,3.35
2022-09-02T03:35:43.429Z,2.84
2022-09-02T03:36:46.259Z,4.06
2022-09-02T03:37:49.066Z,2.71
2022-09-02T03:38:51.644Z,3.67
2022-09-02T03:39:54.308Z,2.49
2022-09-02T03:40:57.549Z,1.56
2022-09-02T03:42:00.175Z,1.92
2022-09-02T03:43:03.951Z,1.70
2022-09-02T03:44:06.517Z,1.48
2022-09-02T03:45:09.183Z,1.85
2022-09-02T03:46:12.241Z,1.64
2022-09-02T03:47:14.786Z,1.54
2022-09-02T03:48:17.401Z,2.82
2022-09-02T03:49:20.023Z,1.74
2022-09-02T03:50:23.145Z,1.62
2022-09-02T03:51:25.678Z,1.43
2022-09-02T03:52:28.298Z,2.07
2022-09-02T03:53:30.962Z,2.19
2022-09-02T03:54:33.519Z,1.39
2022-09-02T03:55:36.150Z,1.48
2022-09-02T03:56:39.190Z,1.86
2022-09-02T03:57:42.749Z,1.66
2022-09-02T03:58:45.276Z,1.50
2022-09-02T03:59:47.884Z,1.38
2022-09-02T04:00:50.758Z,1.66
2022-09-02T04:01:53.530Z,1.92
2022-09-02T04:02:56.482Z,2.01
2022-09-02T04:03:59.381Z,1.84
2022-09-02T04:05:01.949Z,2.10
2022-09-02T04:06:05.186Z,1.80
2022-09-02T04:07:07.730Z,2.04
2022-09-02T04:08:10.360Z,1.86
2022-09-02T04:09:12.816Z,2.61
2022-09-02T04:10:16.317Z,2.71
2022-09-02T04:11:18.992Z,1.75
2022-09-02T04:12:21.551Z,2.20
2022-09-02T04:13:26.028Z,1.97
2022-09-02T04:14:28.633Z,2.08
2022-09-02T04:15:31.321Z,1.73
2022-09-02T04:16:34.320Z,2.42
2022-09-02T04:17:37.111Z,1.81
2022-09-02T04:18:39.687Z,1.77
2022-09-02T04:19:42.297Z,1.97
2022-09-02T04:20:45.163Z,2.11
2022-09-02T04:21:47.891Z,1.86
2022-09-02T04:22:50.506Z,2.04
2022-09-02T04:23:53.175Z,2.05
2022-09-02T04:24:55.745Z,2.40
2022-09-02T04:25:58.272Z,4.25
2022-09-02T04:27:04.218Z,2.36
2022-09-02T04:28:05.692Z,2.59
2022-09-02T04:29:08.232Z,2.11
2022-09-02T04:30:11.951Z,2.52
2022-09-02T04:31:14.668Z,2.26
2022-09-02T04:32:17.593Z,1.76
2022-09-02T04:33:20.120Z,1.67
2022-09-02T04:34:22.990Z,1.65
2022-09-02T04:35:25.704Z,1.94
2022-09-02T04:36:29.069Z,1.96
2022-09-02T04:37:33.290Z,1.75
2022-09-02T04:38:35.778Z,1.88
2022-09-02T04:39:38.325Z,1.89
2022-09-02T04:40:41.155Z,1.85
2022-09-02T04:41:43.726Z,2.54
2022-09-02T04:42:46.396Z,2.17
2022-09-02T04:43:49.000Z,2.18
2022-09-02T04:44:51.935Z,2.07
2022-09-02T04:45:54.574Z,1.72
2022-09-02T04:46:57.452Z,1.73
2022-09-02T04:48:00.105Z,1.69
2022-09-02T04:49:02.718Z,1.95
2022-09-02T04:50:05.634Z,2.10
2022-09-02T04:51:08.295Z,2.01
2022-09-02T04:52:10.801Z,1.44
2022-09-02T04:53:13.443Z,1.63
2022-09-02T04:54:16.146Z,1.71
2022-09-02T04:55:18.733Z,1.43
2022-09-02T04:56:22.285Z,1.45
2022-09-02T04:57:24.933Z,1.56
2022-09-02T04:58:27.501Z,1.16
2022-09-02T04:59:30.127Z,3.24
2022-09-02T05:00:33.965Z,2.39
2022-09-02T05:01:37.349Z,4.96
2022-09-02T05:02:40.405Z,2.34
2022-09-02T05:03:43.201Z,2.24
2022-09-02T05:04:45.726Z,4.50
2022-09-02T05:05:48.454Z,2.31
2022-09-02T05:06:51.518Z,3.33
2022-09-02T05:07:54.288Z,1.63
2022-09-02T05:08:57.158Z,2.34
2022-09-02T05:09:59.762Z,2.73
2022-09-02T05:11:02.431Z,1.40
2022-09-02T05:12:05.180Z,1.58
2022-09-02T05:13:07.737Z,1.29
2022-09-02T05:14:10.406Z,1.62
2022-09-02T05:15:12.970Z,1.19
2022-09-02T05:16:15.900Z,1.41
2022-09-02T05:17:18.520Z,1.51
2022-09-02T05:18:21.185Z,1.08
2022-09-02T05:19:23.746Z,1.89
2022-09-02T05:20:26.834Z,1.44
2022-09-02T05:21:29.503Z,2.36
2022-09-02T05:22:32.171Z,2.55
2022-09-02T05:23:34.693Z,1.94
2022-09-02T05:24:38.177Z,1.37
2022-09-02T05:25:40.682Z,1.66
2022-09-02T05:26:43.468Z,1.25
2022-09-02T05:27:46.430Z,1.99
2022-09-02T05:28:48.963Z,2.68
2022-09-02T05:29:51.570Z,1.02
2022-09-02T05:30:54.467Z,1.01
2022-09-02T05:31:57.451Z,1.12
2022-09-02T05:33:00.049Z,1.31
2022-09-02T05:34:02.658Z,1.08
2022-09-02T05:35:05.318Z,1.67
2022-09-02T05:36:08.299Z,2.17
2022-09-02T05:37:10.866Z,2.23
2022-09-02T05:38:13.740Z,1.71
2022-09-02T05:39:16.415Z,1.50
2022-09-02T05:40:22.555Z,1.41
2022-09-02T05:41:24.104Z,1.29
2022-09-02T05:42:26.878Z,1.12
2022-09-02T05:43:29.441Z,1.08
2022-09-02T05:44:32.013Z,1.00
2022-09-02T05:45:34.573Z,0.84
2022-09-02T05:46:37.453Z,0.76
2022-09-02T05:47:40.115Z,1.10
2022-09-02T05:48:42.602Z,1.45
2022-09-02T05:49:45.154Z,1.33
2022-09-02T05:50:50.295Z,2.03
2022-09-02T05:51:52.437Z,1.15
2022-09-02T05:52:55.000Z,1.37
2022-09-02T05:53:57.567Z,1.09
2022-09-02T05:55:00.151Z,0.92
2022-09-02T05:56:03.144Z,1.41
2022-09-02T05:57:05.677Z,1.29
2022-09-02T05:58:08.202Z,1.33
2022-09-02T05:59:10.825Z,1.00
2022-09-02T06:00:17.800Z,1.45
2022-09-02T06:01:18.918Z,1.18
2022-09-02T06:02:21.816Z,1.44
2022-09-02T06:03:24.707Z,1.76
2022-09-02T06:04:27.517Z,1.42
2022-09-02T06:05:30.249Z,1.51
2022-09-02T06:06:34.209Z,1.93
2022-09-02T06:07:36.878Z,1.45
2022-09-02T06:08:39.466Z,2.38
2022-09-02T06:09:42.019Z,1.63
2022-09-02T06:10:45.131Z,1.96
2022-09-02T06:11:47.863Z,1.19
2022-09-02T06:12:50.529Z,1.41
2022-09-02T06:13:53.245Z,1.45
2022-09-02T06:14:55.874Z,1.13
2022-09-02T06:15:58.492Z,1.11
2022-09-02T06:17:01.722Z,0.81
2022-09-02T06:18:04.291Z,1.27
2022-09-02T06:19:08.292Z,0.66
2022-09-02T06:20:12.184Z,1.22
2022-09-02T06:21:15.062Z,0.73
2022-09-02T06:22:17.594Z,0.80
2022-09-02T06:23:20.327Z,1.07
2022-09-02T06:24:30.271Z,0.93
2022-09-02T06:25:31.914Z,1.20
2022-09-02T06:26:35.270Z,1.19
2022-09-02T06:27:38.043Z,0.85
2022-09-02T06:28:40.666Z,0.87
2022-09-02T06:29:43.133Z,1.07
2022-09-02T06:30:45.992Z,1.10
2022-09-02T06:31:48.618Z,0.83
2022-09-02T06:32:51.161Z,0.70
2022-09-02T06:33:53.696Z,1.01
2022-09-02T06:34:56.319Z,0.90
2022-09-02T06:35:58.881Z,0.91
2022-09-02T06:37:01.961Z,1.57
2022-09-02T06:38:05.510Z,1.16
2022-09-02T06:39:08.122Z,1.05
2022-09-02T06:40:11.226Z,1.06
2022-09-02T06:41:14.178Z,1.03
2022-09-02T06:42:16.846Z,0.76
2022-09-02T06:43:19.524Z,0.84
2022-09-02T06:44:22.203Z,0.78
2022-09-02T06:45:24.751Z,0.87
2022-09-02T06:46:28.212Z,0.93
2022-09-02T06:47:31.112Z,0.74
2022-09-02T06:48:33.886Z,0.82
2022-09-02T06:49:36.463Z,0.65
2022-09-02T06:50:39.738Z,0.72
2022-09-02T06:51:42.316Z,1.00
2022-09-02T06:52:44.920Z,0.95
2022-09-02T06:53:48.221Z,1.29
2022-09-02T06:54:50.787Z,1.04
2022-09-02T06:55:53.391Z,1.06
2022-09-02T06:56:56.356Z,1.01
2022-09-02T06:57:59.128Z,0.69
2022-09-02T06:59:01.656Z,0.80
2022-09-02T07:00:04.723Z,0.86
2022-09-02T07:01:07.465Z,0.73
2022-09-02T07:02:10.889Z,1.14
2022-09-02T07:03:14.001Z,1.17
2022-09-02T07:04:16.951Z,0.96
2022-09-02T07:05:19.561Z,0.81
2022-09-02T07:06:23.154Z,1.44
2022-09-02T07:07:25.810Z,0.91
2022-09-02T07:08:28.397Z,0.94
2022-09-02T07:09:31.156Z,1.17
2022-09-02T07:10:35.162Z,0.87
2022-09-02T07:11:37.755Z,1.16
2022-09-02T07:12:40.398Z,1.23
2022-09-02T07:13:44.911Z,1.39
2022-09-02T07:14:47.582Z,1.39
2022-09-02T07:15:50.249Z,1.35
2022-09-02T07:16:53.251Z,0.86
2022-09-02T07:17:55.917Z,1.17
2022-09-02T07:18:58.558Z,0.85
2022-09-02T07:20:01.131Z,0.71
2022-09-02T07:21:03.998Z,1.23
2022-09-02T07:22:08.759Z,2.06
2022-09-02T07:23:11.550Z,1.41
2022-09-02T07:24:14.159Z,0.94
2022-09-02T07:25:16.787Z,1.03
2022-09-02T07:26:20.016Z,0.99
2022-09-02T07:27:22.914Z,0.95
2022-09-02T07:28:25.512Z,1.06
2022-09-02T07:29:28.059Z,0.78
2022-09-02T07:30:31.108Z,1.08
2022-09-02T07:31:33.772Z,1.09
2022-09-02T07:32:36.435Z,1.17
2022-09-02T07:33:39.103Z,0.91
2022-09-02T07:34:41.751Z,1.37
2022-09-02T07:35:44.296Z,0.76
2022-09-02T07:36:47.318Z,0.82
2022-09-02T07:37:49.986Z,0.59
2022-09-02T07:38:52.654Z,1.65
2022-09-02T07:39:55.332Z,1.49
2022-09-02T07:40:58.298Z,2.22
2022-09-02T07:42:00.963Z,1.31
2022-09-02T07:43:03.546Z,1.48
2022-09-02T07:44:06.163Z,1.67
2022-09-02T07:45:08.770Z,1.06
2022-09-02T07:46:12.294Z,1.02
2022-09-02T07:47:15.234Z,0.78
2022-09-02T07:48:17.806Z,0.74
2022-09-02T07:49:23.989Z,0.62
2022-09-02T07:50:25.399Z,0.78
2022-09-02T07:51:31.101Z,0.87
2022-09-02T07:52:32.595Z,1.07
2022-09-02T07:53:35.245Z,1.43
2022-09-02T07:54:37.790Z,1.53
2022-09-02T07:55:40.375Z,1.23
2022-09-02T07:56:43.519Z,0.84
2022-09-02T07:57:47.772Z,0.80
2022-09-02T07:58:50.449Z,0.82
2022-09-02T07:59:53.723Z,1.05
2022-09-02T08:00:56.765Z,0.70
2022-09-02T08:01:59.699Z,1.02
2022-09-02T08:03:04.006Z,1.12
2022-09-02T08:04:06.855Z,2.52
2022-09-02T08:05:09.829Z,0.95
2022-09-02T08:06:13.724Z,1.17
2022-09-02T08:07:16.398Z,1.35
2022-09-02T08:08:18.972Z,1.07
2022-09-02T08:09:21.734Z,0.70
2022-09-02T08:10:26.003Z,0.88
2022-09-02T08:11:28.612Z,1.03
2022-09-02T08:12:31.282Z,0.97
2022-09-02T08:13:33.908Z,0.85
2022-09-02T08:14:36.616Z,0.65
2022-09-02T08:15:39.554Z,1.37
2022-09-02T08:16:42.627Z,1.05
2022-09-02T08:17:45.551Z,0.48
2022-09-02T08:18:48.226Z,0.71
2022-09-02T08:19:50.781Z,0.37
2022-09-02T08:20:53.549Z,0.61
2022-09-02T08:21:56.128Z,0.77
2022-09-02T08:23:10.736Z,0.61
2022-09-02T08:24:03.413Z,0.95
2022-09-02T08:25:06.032Z,0.65
2022-09-02T08:26:09.668Z,0.64
2022-09-02T08:27:12.224Z,0.65
2022-09-02T08:28:14.906Z,0.63
2022-09-02T08:29:17.568Z,0.75
2022-09-02T08:30:21.974Z,1.11
2022-09-02T08:31:24.571Z,0.73
2022-09-02T08:32:27.520Z,0.71
2022-09-02T08:33:30.089Z,0.63
2022-09-02T08:34:32.661Z,7.36
2022-09-02T08:35:35.341Z,1.48
2022-09-02T08:36:38.464Z,0.85
2022-09-02T08:37:41.036Z,0.95
2022-09-02T08:38:43.946Z,0.56
2022-09-02T08:39:46.514Z,1.66
2022-09-02T08:40:49.457Z,0.74
2022-09-02T08:41:52.197Z,0.63
2022-09-02T08:42:54.826Z,0.51
2022-09-02T08:43:57.497Z,0.73
2022-09-02T08:45:00.106Z,0.83
2022-09-02T08:46:02.977Z,1.16
2022-09-02T08:47:06.114Z,0.49
2022-09-02T08:48:08.727Z,0.87
2022-09-02T08:49:11.765Z,0.50
2022-09-02T08:50:15.666Z,1.54
2022-09-02T08:51:18.337Z,0.63
2022-09-02T08:52:21.003Z,0.85
2022-09-02T08:53:23.694Z,0.43
2022-09-02T08:54:26.644Z,0.99
2022-09-02T08:55:29.318Z,0.73
2022-09-02T08:56:32.601Z,1.07
2022-09-02T08:57:35.269Z,0.67
2022-09-02T08:58:39.740Z,0.75
2022-09-02T08:59:42.309Z,0.99
2022-09-02T09:00:45.167Z,0.79
2022-09-02T09:01:48.486Z,0.71
2022-09-02T09:02:51.779Z,0.79
2022-09-02T09:03:54.566Z,0.67
2022-09-02T09:04:57.229Z,0.82
2022-09-02T09:05:59.897Z,0.64
2022-09-02T09:07:02.604Z,0.61
2022-09-02T09:08:05.291Z,0.62
2022-09-02T09:09:08.172Z,0.56
2022-09-02T09:10:11.254Z,0.80
2022-09-02T09:11:13.872Z,0.99
2022-09-02T09:12:16.537Z,0.85
2022-09-02T09:13:19.210Z,0.45
2022-09-02T09:14:21.872Z,0.93
2022-09-02T09:15:24.714Z,0.53
2022-09-02T09:16:27.734Z,0.67
2022-09-02T09:17:32.230Z,0.71
2022-09-02T09:18:35.204Z,0.72
2022-09-02T09:19:37.873Z,0.56
2022-09-02T09:20:40.698Z,1.21
2022-09-02T09:21:43.321Z,0.95
2022-09-02T09:22:45.919Z,0.59
2022-09-02T09:23:48.591Z,0.85
2022-09-02T09:24:51.386Z,0.92
2022-09-02T09:25:54.189Z,1.66
2022-09-02T09:26:57.226Z,2.44
2022-09-02T09:28:00.043Z,1.59
2022-09-02T09:29:02.646Z,1.88
2022-09-02T09:30:06.008Z,1.98
2022-09-02T09:31:11.329Z,1.05
2022-09-02T09:32:14.018Z,0.81
2022-09-02T09:33:16.702Z,0.89
2022-09-02T09:34:19.212Z,0.75
2022-09-02T09:35:21.813Z,0.83
2022-09-02T09:36:25.195Z,0.66
2022-09-02T09:37:29.209Z,0.65
2022-09-02T09:38:32.298Z,0.71
2022-09-02T09:39:34.840Z,0.53
2022-09-02T09:40:37.608Z,0.95
2022-09-02T09:41:40.688Z,0.91
2022-09-02T09:42:47.855Z,0.99
2022-09-02T09:43:47.775Z,1.06
2022-09-02T09:44:50.534Z,0.80
2022-09-02T09:45:53.162Z,0.81
2022-09-02T09:46:56.395Z,0.63
2022-09-02T09:47:59.022Z,0.57
2022-09-02T09:49:02.042Z,0.64
2022-09-02T09:50:05.045Z,0.64
2022-09-02T09:51:07.581Z,0.60
2022-09-02T09:52:10.193Z,0.70
2022-09-02T09:53:12.719Z,0.71
2022-09-02T09:54:15.350Z,0.94
2022-09-02T09:55:20.950Z,0.75
2022-09-02T09:56:24.110Z,0.67
2022-09-02T09:57:26.866Z,0.57
2022-09-02T09:58:31.288Z,0.71
2022-09-02T09:59:33.850Z,0.65
2022-09-02T10:00:38.350Z,0.90
2022-09-02T10:01:41.114Z,0.71
2022-09-02T10:02:43.848Z,0.67
2022-09-02T10:03:46.735Z,0.82
2022-09-02T10:04:49.301Z,0.99
2022-09-02T10:05:51.914Z,0.58
2022-09-02T10:06:54.792Z,0.78
2022-09-02T10:07:57.349Z,0.54
2022-09-02T10:09:01.312Z,0.68
2022-09-02T10:10:04.333Z,0.73
2022-09-02T10:11:07.006Z,0.71
2022-09-02T10:12:09.664Z,0.52
2022-09-02T10:13:12.328Z,0.97
2022-09-02T10:14:15.067Z,0.83
2022-09-02T10:15:17.674Z,1.02
2022-09-02T10:16:24.889Z,1.47
2022-09-02T10:17:26.597Z,0.91
2022-09-02T10:18:29.469Z,1.24
2022-09-02T10:19:32.038Z,0.73
2022-09-02T10:20:35.013Z,0.80
2022-09-02T10:21:40.838Z,0.55
2022-09-02T10:22:59.691Z,0.52
2022-09-02T10:23:47.324Z,1.02
2022-09-02T10:24:49.889Z,1.01
2022-09-02T10:25:52.557Z,0.85
2022-09-02T10:26:55.600Z,0.78
2022-09-02T10:27:58.206Z,0.67
2022-09-02T10:29:04.162Z,1.22
2022-09-02T10:30:07.030Z,0.92
2022-09-02T10:31:09.750Z,1.04
2022-09-02T10:32:12.732Z,1.31
2022-09-02T10:33:15.398Z,0.93
2022-09-02T10:34:18.028Z,0.85
2022-09-02T10:35:20.579Z,0.89
2022-09-02T10:36:25.349Z,1.00
2022-09-02T10:37:27.817Z,0.84
2022-09-02T10:38:30.423Z,0.65
2022-09-02T10:39:33.198Z,0.83
2022-09-02T10:40:35.883Z,0.81
2022-09-02T10:41:38.590Z,0.93
2022-09-02T10:42:41.822Z,0.87
2022-09-02T10:43:44.389Z,0.93
2022-09-02T10:44:47.013Z,1.16
2022-09-02T10:45:49.622Z,0.89
2022-09-02T10:46:52.892Z,1.02
2022-09-02T10:47:55.783Z,0.89
2022-09-02T10:48:58.427Z,1.00
2022-09-02T10:50:01.019Z,1.06
2022-09-02T10:51:03.587Z,0.79
2022-09-02T10:52:06.288Z,0.81
2022-09-02T10:53:09.648Z,0.90
2022-09-02T10:54:12.462Z,0.94
2022-09-02T10:55:15.182Z,0.99
2022-09-02T10:56:19.285Z,0.91
2022-09-02T10:57:21.958Z,1.17
2022-09-02T10:58:24.935Z,1.42
2022-09-02T10:59:27.604Z,1.36
2022-09-02T11:00:30.633Z,1.12
2022-09-02T11:01:33.518Z,1.21
2022-09-02T11:02:36.116Z,1.17
2022-09-02T11:03:38.704Z,0.80
2022-09-02T11:04:43.198Z,0.88
2022-09-02T11:05:45.868Z,0.72
2022-09-02T11:07:04.085Z,0.98
2022-09-02T11:07:53.258Z,0.85
2022-09-02T11:08:55.923Z,0.93
2022-09-02T11:09:58.496Z,1.57
2022-09-02T11:11:01.884Z,0.74
2022-09-02T11:12:04.440Z,0.87
2022-09-02T11:13:07.015Z,0.94
2022-09-02T11:14:10.905Z,0.90
2022-09-02T11:15:15.352Z,0.97
2022-09-02T11:16:19.985Z,0.88
2022-09-02T11:17:22.814Z,1.01
2022-09-02T11:18:26.756Z,0.78
2022-09-02T11:19:29.686Z,0.97
2022-09-02T11:20:32.967Z,0.84
2022-09-02T11:21:35.946Z,3.69
2022-09-02T11:22:38.966Z,0.89
2022-09-02T11:23:41.593Z,0.75
2022-09-02T11:24:46.593Z,1.24
2022-09-02T11:25:49.389Z,2.55
2022-09-02T11:26:52.337Z,1.02
2022-09-02T11:27:54.941Z,1.15
2022-09-02T11:28:57.593Z,0.72
2022-09-02T11:30:00.985Z,0.74
2022-09-02T11:31:03.652Z,0.80
2022-09-02T11:32:07.244Z,0.88
2022-09-02T11:33:09.811Z,0.96
2022-09-02T11:34:12.380Z,1.13
2022-09-02T11:35:15.083Z,0.79
2022-09-02T11:36:18.704Z,0.66
2022-09-02T11:37:21.266Z,1.01
2022-09-02T11:38:23.977Z,0.81
2022-09-02T11:39:36.499Z,1.19
2022-09-02T11:40:35.118Z,0.93
2022-09-02T11:41:37.827Z,0.76
2022-09-02T11:42:40.801Z,0.80
2022-09-02T11:43:43.743Z,0.79
2022-09-02T11:44:52.725Z,0.88
2022-09-02T11:45:51.258Z,1.55
2022-09-02T11:46:54.464Z,0.81
2022-09-02T11:47:57.419Z,0.86
2022-09-02T11:49:00.358Z,0.77
2022-09-02T11:50:04.096Z,0.61
2022-09-02T11:51:07.270Z,1.14
2022-09-02T11:52:09.994Z,0.70
2022-09-02T11:53:12.775Z,0.53
2022-09-02T11:54:15.623Z,1.22
2022-09-02T11:55:18.870Z,0.96
2022-09-02T11:56:22.055Z,0.83
2022-09-02T11:57:26.571Z,0.74
2022-09-02T11:58:29.252Z,0.70
2022-09-02T11:59:31.896Z,0.87
2022-09-02T12:00:35.394Z,2.97
2022-09-02T12:01:44.027Z,0.92
2022-09-02T12:02:43.082Z,0.83
2022-09-02T12:04:06.868Z,1.81
2022-09-02T12:04:59.742Z,0.71
2022-09-02T12:05:54.843Z,0.70
2022-09-02T12:06:58.580Z,0.74
2022-09-02T12:08:01.301Z,0.75
2022-09-02T12:09:04.218Z,0.82
2022-09-02T12:10:06.950Z,0.66
2022-09-02T12:11:10.851Z,0.58
2022-09-02T12:12:13.654Z,0.79
2022-09-02T12:13:17.452Z,0.60
2022-09-02T12:14:20.530Z,0.79
2022-09-02T12:15:23.101Z,1.05
2022-09-02T12:16:26.461Z,0.62
2022-09-02T12:17:29.154Z,0.89
2022-09-02T12:18:31.695Z,0.77
2022-09-02T12:19:34.252Z,0.73
2022-09-02T12:20:36.957Z,0.57
2022-09-02T12:21:40.141Z,0.80
2022-09-02T12:22:43.014Z,0.60
2022-09-02T12:23:45.686Z,0.74
2022-09-02T12:24:48.412Z,0.54
2022-09-02T12:25:51.226Z,0.65
2022-09-02T12:26:54.315Z,0.98
2022-09-02T12:27:56.984Z,0.75
2022-09-02T12:28:59.851Z,0.89
2022-09-02T12:31:26.229Z,0.83
2022-09-02T12:32:29.151Z,0.68
2022-09-02T12:33:31.819Z,0.73
2022-09-02T12:34:34.487Z,1.06
2022-09-02T12:35:37.348Z,1.53
2022-09-02T12:36:41.979Z,2.75
2022-09-02T12:37:44.580Z,4.93
2022-09-02T12:38:47.582Z,2.22
2022-09-02T12:39:50.567Z,1.09
2022-09-02T12:40:53.749Z,1.56
2022-09-02T12:41:56.551Z,1.12
2022-09-02T12:42:59.119Z,0.82
2022-09-02T12:44:01.892Z,0.94
2022-09-02T12:45:04.653Z,0.92
2022-09-02T12:46:07.891Z,0.55
2022-09-02T12:47:10.515Z,1.15
2022-09-02T12:48:13.795Z,4.73
2022-09-02T12:49:16.467Z,1.66
2022-09-02T12:50:19.818Z,0.61
2022-09-02T12:51:22.474Z,0.62
2022-09-02T12:52:25.020Z,0.89
2022-09-02T12:53:27.654Z,0.82
2022-09-02T12:54:30.186Z,0.65
2022-09-02T12:55:32.748Z,0.77
2022-09-02T12:56:36.380Z,1.87
2022-09-02T12:57:38.975Z,1.26
2022-09-02T12:58:41.451Z,0.83
2022-09-02T12:59:43.935Z,3.39
2022-09-02T13:00:47.670Z,1.09
2022-09-02T13:01:50.513Z,1.07
2022-09-02T13:02:53.315Z,1.66
2022-09-02T13:03:55.883Z,0.87
2022-09-02T13:04:58.462Z,0.71
2022-09-02T13:06:01.426Z,0.68
2022-09-02T13:07:03.994Z,0.87
2022-09-02T13:08:06.520Z,0.75
2022-09-02T13:09:09.178Z,0.73
2022-09-02T13:10:12.331Z,0.73
2022-09-02T13:11:14.874Z,1.00
2022-09-02T13:12:17.544Z,0.91
2022-09-02T13:13:20.110Z,0.79
2022-09-02T13:14:22.678Z,0.83
2022-09-02T13:15:25.243Z,0.51
2022-09-02T13:16:28.376Z,0.56
2022-09-02T13:17:36.578Z,0.62
2022-09-02T13:18:35.615Z,0.63
2022-09-02T13:19:39.099Z,0.85
2022-09-02T13:20:43.105Z,0.93
2022-09-02T13:21:45.666Z,0.86
2022-09-02T13:22:48.334Z,0.60
2022-09-02T13:23:50.902Z,1.17
2022-09-02T13:24:53.450Z,1.81
2022-09-02T13:25:56.343Z,0.95
2022-09-02T13:26:59.664Z,1.00
2022-09-02T13:28:02.323Z,0.81
2022-09-02T13:29:04.967Z,0.91
2022-09-02T13:30:07.955Z,0.70
2022-09-02T13:31:10.631Z,0.56
2022-09-02T13:32:13.283Z,0.98
2022-09-02T13:33:15.961Z,1.01
2022-09-02T13:34:18.551Z,0.91
2022-09-02T13:35:24.014Z,1.23
2022-09-02T13:36:25.964Z,0.86
2022-09-02T13:37:28.638Z,0.79
2022-09-02T13:38:31.429Z,0.84
2022-09-02T13:39:34.126Z,1.13
2022-09-02T13:40:37.106Z,1.40
2022-09-02T13:41:40.683Z,0.98
2022-09-02T13:42:43.736Z,0.98
2022-09-02T13:43:47.719Z,0.80
2022-09-02T13:44:50.392Z,0.67
2022-09-02T13:45:52.967Z,0.91
2022-09-02T13:46:55.775Z,0.93
2022-09-02T13:47:58.445Z,0.91
2022-09-02T13:49:01.060Z,1.29
2022-09-02T13:50:03.922Z,1.00
2022-09-02T13:51:06.512Z,1.00
2022-09-02T13:52:09.322Z,0.93
2022-09-02T13:53:53.773Z,0.90
2022-09-02T13:54:23.083Z,1.08
2022-09-02T13:55:21.522Z,1.16
2022-09-02T13:56:25.831Z,1.99
2022-09-02T13:57:28.414Z,1.63
2022-09-02T13:58:30.966Z,0.98
2022-09-02T13:59:33.838Z,0.92